sensor_id;sensor_type;location;lat;lon;timestamp;P1;durP1;ratioP1;P2;durP2;ratioP2
72761;SDS011;60886;55.034;73.150;2023-04-01T00:02:48;9.27;;;2.90;;
72761;SDS011;60886;55.034;73.150;2023-04-01T00:05:49;9.77;;;2.58;;
72761;SDS011;60886;55.034;73.150;2023-04-01T00:08:51;12.82;;;3.33;;
72761;SDS011;60886;55.034;73.150;2023-04-01T00:11:53;9.70;;;2.60;;
72761;SDS011;60886;55.034;73.150;2023-04-01T00:14:56;10.77;;;3.03;;
72761;SDS011;60886;55.034;73.150;2023-04-01T00:18:03;11.65;;;3.30;;
72761;SDS011;60886;55.034;73.150;2023-04-01T00:21:05;11.07;;;2.80;;
72761;SDS011;60886;55.034;73.150;2023-04-01T00:24:11;9.40;;;2.80;;
72761;SDS011;60886;55.034;73.150;2023-04-01T00:27:13;13.07;;;3.15;;
72761;SDS011;60886;55.034;73.150;2023-04-01T00:30:16;9.13;;;2.78;;
72761;SDS011;60886;55.034;73.150;2023-04-01T00:33:17;12.35;;;3.42;;
72761;SDS011;60886;55.034;73.150;2023-04-01T00:36:20;13.23;;;3.20;;
72761;SDS011;60886;55.034;73.150;2023-04-01T00:39:29;13.07;;;4.40;;
72761;SDS011;60886;55.034;73.150;2023-04-01T00:42:32;11.50;;;3.23;;
72761;SDS011;60886;55.034;73.150;2023-04-01T00:45:35;16.27;;;3.00;;
72761;SDS011;60886;55.034;73.150;2023-04-01T00:48:50;11.50;;;3.28;;
72761;SDS011;60886;55.034;73.150;2023-04-01T00:51:57;13.40;;;3.40;;
72761;SDS011;60886;55.034;73.150;2023-04-01T00:55:02;9.32;;;3.10;;
72761;SDS011;60886;55.034;73.150;2023-04-01T00:58:13;9.35;;;3.13;;
72761;SDS011;60886;55.034;73.150;2023-04-01T01:01:19;9.25;;;3.17;;
72761;SDS011;60886;55.034;73.150;2023-04-01T01:04:27;9.88;;;3.45;;
72761;SDS011;60886;55.034;73.150;2023-04-01T01:07:38;14.83;;;5.17;;
72761;SDS011;60886;55.034;73.150;2023-04-01T01:10:53;14.25;;;5.60;;
72761;SDS011;60886;55.034;73.150;2023-04-01T01:14:01;14.43;;;5.00;;
72761;SDS011;60886;55.034;73.150;2023-04-01T01:27:22;17.15;;;5.60;;
72761;SDS011;60886;55.034;73.150;2023-04-01T01:30:34;17.25;;;5.45;;
72761;SDS011;60886;55.034;73.150;2023-04-01T01:36:44;14.25;;;3.80;;
72761;SDS011;60886;55.034;73.150;2023-04-01T01:39:59;11.13;;;3.03;;
72761;SDS011;60886;55.034;73.150;2023-04-01T01:43:06;11.10;;;3.50;;
72761;SDS011;60886;55.034;73.150;2023-04-01T01:46:16;10.73;;;3.27;;
72761;SDS011;60886;55.034;73.150;2023-04-01T01:49:20;10.88;;;3.33;;
72761;SDS011;60886;55.034;73.150;2023-04-01T01:52:23;9.87;;;2.77;;
72761;SDS011;60886;55.034;73.150;2023-04-01T01:55:33;12.03;;;2.83;;
72761;SDS011;60886;55.034;73.150;2023-04-01T01:58:43;10.60;;;2.50;;
72761;SDS011;60886;55.034;73.150;2023-04-01T02:01:51;8.90;;;2.90;;
72761;SDS011;60886;55.034;73.150;2023-04-01T02:04:56;10.17;;;2.93;;
72761;SDS011;60886;55.034;73.150;2023-04-01T02:08:00;8.43;;;2.55;;
72761;SDS011;60886;55.034;73.150;2023-04-01T02:11:07;10.33;;;2.67;;
72761;SDS011;60886;55.034;73.150;2023-04-01T02:14:16;8.43;;;2.50;;
72761;SDS011;60886;55.034;73.150;2023-04-01T02:17:24;12.37;;;2.87;;
72761;SDS011;60886;55.034;73.150;2023-04-01T02:20:28;8.53;;;2.07;;
72761;SDS011;60886;55.034;73.150;2023-04-01T02:23:32;9.35;;;2.40;;
72761;SDS011;60886;55.034;73.150;2023-04-01T02:26:36;8.95;;;2.40;;
72761;SDS011;60886;55.034;73.150;2023-04-01T02:29:37;9.82;;;2.55;;
72761;SDS011;60886;55.034;73.150;2023-04-01T02:32:41;10.57;;;2.45;;
72761;SDS011;60886;55.034;73.150;2023-04-01T02:35:43;8.52;;;2.28;;
72761;SDS011;60886;55.034;73.150;2023-04-01T02:38:55;8.37;;;2.50;;
72761;SDS011;60886;55.034;73.150;2023-04-01T02:42:05;9.13;;;2.35;;
72761;SDS011;60886;55.034;73.150;2023-04-01T02:45:15;8.11;;;2.21;;
72761;SDS011;60886;55.034;73.150;2023-04-01T02:48:24;9.90;;;2.30;;
72761;SDS011;60886;55.034;73.150;2023-04-01T02:51:25;9.20;;;2.77;;
72761;SDS011;60886;55.034;73.150;2023-04-01T02:54:27;8.80;;;2.05;;
72761;SDS011;60886;55.034;73.150;2023-04-01T02:57:28;6.93;;;1.88;;
72761;SDS011;60886;55.034;73.150;2023-04-01T03:00:35;7.33;;;1.83;;
72761;SDS011;60886;55.034;73.150;2023-04-01T03:03:36;6.60;;;1.42;;
72761;SDS011;60886;55.034;73.150;2023-04-01T03:06:38;7.40;;;1.40;;
72761;SDS011;60886;55.034;73.150;2023-04-01T03:09:39;6.57;;;1.73;;
72761;SDS011;60886;55.034;73.150;2023-04-01T03:12:41;6.22;;;1.63;;
72761;SDS011;60886;55.034;73.150;2023-04-01T03:15:43;5.83;;;1.63;;
72761;SDS011;60886;55.034;73.150;2023-04-01T03:18:44;6.28;;;1.45;;
72761;SDS011;60886;55.034;73.150;2023-04-01T03:21:46;6.25;;;1.15;;
72761;SDS011;60886;55.034;73.150;2023-04-01T03:24:48;6.73;;;1.17;;
72761;SDS011;60886;55.034;73.150;2023-04-01T03:27:55;5.32;;;1.20;;
72761;SDS011;60886;55.034;73.150;2023-04-01T03:31:00;5.77;;;1.13;;
72761;SDS011;60886;55.034;73.150;2023-04-01T03:34:02;5.55;;;1.40;;
72761;SDS011;60886;55.034;73.150;2023-04-01T03:37:14;4.93;;;1.10;;
72761;SDS011;60886;55.034;73.150;2023-04-01T03:40:25;5.85;;;1.08;;
72761;SDS011;60886;55.034;73.150;2023-04-01T03:43:27;5.53;;;1.30;;
72761;SDS011;60886;55.034;73.150;2023-04-01T03:46:29;6.45;;;1.20;;
72761;SDS011;60886;55.034;73.150;2023-04-01T03:49:41;5.60;;;1.25;;
72761;SDS011;60886;55.034;73.150;2023-04-01T03:52:42;6.18;;;1.00;;
72761;SDS011;60886;55.034;73.150;2023-04-01T03:55:44;6.67;;;1.60;;
72761;SDS011;60886;55.034;73.150;2023-04-01T03:58:45;5.32;;;1.10;;
72761;SDS011;60886;55.034;73.150;2023-04-01T04:01:47;6.63;;;1.20;;
72761;SDS011;60886;55.034;73.150;2023-04-01T04:05:02;5.20;;;1.10;;
72761;SDS011;60886;55.034;73.150;2023-04-01T04:08:04;4.50;;;1.10;;
72761;SDS011;60886;55.034;73.150;2023-04-01T04:11:06;5.60;;;1.40;;
72761;SDS011;60886;55.034;73.150;2023-04-01T04:14:08;5.15;;;1.23;;
72761;SDS011;60886;55.034;73.150;2023-04-01T04:17:11;4.97;;;1.20;;
72761;SDS011;60886;55.034;73.150;2023-04-01T04:20:18;5.16;;;0.96;;
72761;SDS011;60886;55.034;73.150;2023-04-01T04:23:19;5.80;;;1.25;;
72761;SDS011;60886;55.034;73.150;2023-04-01T04:26:21;4.23;;;1.00;;
72761;SDS011;60886;55.034;73.150;2023-04-01T04:29:34;5.57;;;1.10;;
72761;SDS011;60886;55.034;73.150;2023-04-01T04:32:35;5.80;;;1.10;;
72761;SDS011;60886;55.034;73.150;2023-04-01T04:35:38;5.23;;;1.30;;
72761;SDS011;60886;55.034;73.150;2023-04-01T04:38:49;5.82;;;1.13;;
72761;SDS011;60886;55.034;73.150;2023-04-01T04:41:51;5.33;;;1.33;;
72761;SDS011;60886;55.034;73.150;2023-04-01T04:44:53;5.63;;;1.30;;
72761;SDS011;60886;55.034;73.150;2023-04-01T04:47:54;4.00;;;1.00;;
72761;SDS011;60886;55.034;73.150;2023-04-01T04:50:57;4.90;;;1.07;;
72761;SDS011;60886;55.034;73.150;2023-04-01T04:53:59;5.63;;;1.25;;
72761;SDS011;60886;55.034;73.150;2023-04-01T04:57:15;6.07;;;1.20;;
72761;SDS011;60886;55.034;73.150;2023-04-01T05:00:26;5.95;;;1.35;;
72761;SDS011;60886;55.034;73.150;2023-04-01T05:03:34;5.30;;;1.20;;
72761;SDS011;60886;55.034;73.150;2023-04-01T05:06:36;6.65;;;1.30;;
72761;SDS011;60886;55.034;73.150;2023-04-01T05:09:37;6.45;;;1.30;;
72761;SDS011;60886;55.034;73.150;2023-04-01T05:12:44;6.75;;;1.50;;
72761;SDS011;60886;55.034;73.150;2023-04-01T05:15:51;7.77;;;1.20;;
72761;SDS011;60886;55.034;73.150;2023-04-01T05:18:52;5.00;;;1.20;;
72761;SDS011;60886;55.034;73.150;2023-04-01T05:21:54;6.70;;;1.10;;
72761;SDS011;60886;55.034;73.150;2023-04-01T05:24:55;4.80;;;1.20;;
72761;SDS011;60886;55.034;73.150;2023-04-01T05:27:57;6.18;;;1.30;;
72761;SDS011;60886;55.034;73.150;2023-04-01T05:30:59;5.00;;;1.10;;
72761;SDS011;60886;55.034;73.150;2023-04-01T05:34:07;4.75;;;1.05;;
72761;SDS011;60886;55.034;73.150;2023-04-01T05:37:09;8.40;;;1.30;;
72761;SDS011;60886;55.034;73.150;2023-04-01T05:40:15;6.88;;;1.20;;
72761;SDS011;60886;55.034;73.150;2023-04-01T05:43:17;5.93;;;1.05;;
72761;SDS011;60886;55.034;73.150;2023-04-01T05:46:22;5.35;;;1.08;;
72761;SDS011;60886;55.034;73.150;2023-04-01T05:49:30;5.20;;;1.10;;
72761;SDS011;60886;55.034;73.150;2023-04-01T05:52:34;5.07;;;1.05;;
72761;SDS011;60886;55.034;73.150;2023-04-01T05:55:35;6.03;;;1.17;;
72761;SDS011;60886;55.034;73.150;2023-04-01T05:58:38;4.95;;;1.10;;
72761;SDS011;60886;55.034;73.150;2023-04-01T06:01:39;7.45;;;1.10;;
72761;SDS011;60886;55.034;73.150;2023-04-01T06:04:41;6.30;;;1.23;;
72761;SDS011;60886;55.034;73.150;2023-04-01T06:07:42;10.40;;;1.52;;
72761;SDS011;60886;55.034;73.150;2023-04-01T06:10:57;7.23;;;1.60;;
72761;SDS011;60886;55.034;73.150;2023-04-01T06:17:28;5.30;;;1.20;;
72761;SDS011;60886;55.034;73.150;2023-04-01T06:38:48;6.27;;;1.70;;
72761;SDS011;60886;55.034;73.150;2023-04-01T06:56:44;4.60;;;1.20;;
72761;SDS011;60886;55.034;73.150;2023-04-01T06:59:57;6.63;;;1.60;;
72761;SDS011;60886;55.034;73.150;2023-04-01T07:06:16;5.82;;;1.30;;
72761;SDS011;60886;55.034;73.150;2023-04-01T07:09:40;5.70;;;1.27;;
72761;SDS011;60886;55.034;73.150;2023-04-01T07:13:06;6.97;;;1.33;;
72761;SDS011;60886;55.034;73.150;2023-04-01T07:16:41;7.65;;;1.30;;
72761;SDS011;60886;55.034;73.150;2023-04-01T07:23:15;6.23;;;1.17;;
72761;SDS011;60886;55.034;73.150;2023-04-01T07:26:37;6.50;;;1.17;;
72761;SDS011;60886;55.034;73.150;2023-04-01T07:29:44;6.40;;;1.30;;
72761;SDS011;60886;55.034;73.150;2023-04-01T07:57:08;5.47;;;1.33;;
72761;SDS011;60886;55.034;73.150;2023-04-01T08:07:47;7.47;;;1.43;;
72761;SDS011;60886;55.034;73.150;2023-04-01T08:11:21;7.03;;;1.50;;
72761;SDS011;60886;55.034;73.150;2023-04-01T08:15:23;6.08;;;1.60;;
72761;SDS011;60886;55.034;73.150;2023-04-01T08:19:14;5.50;;;1.43;;
72761;SDS011;60886;55.034;73.150;2023-04-01T08:22:42;6.43;;;1.42;;
72761;SDS011;60886;55.034;73.150;2023-04-01T08:26:04;9.50;;;2.97;;
72761;SDS011;60886;55.034;73.150;2023-04-01T08:29:50;10.77;;;2.10;;
72761;SDS011;60886;55.034;73.150;2023-04-01T08:33:00;9.68;;;2.40;;
72761;SDS011;60886;55.034;73.150;2023-04-01T08:40:15;7.32;;;1.83;;
72761;SDS011;60886;55.034;73.150;2023-04-01T08:57:53;11.47;;;2.60;;
72761;SDS011;60886;55.034;73.150;2023-04-01T09:08:49;7.45;;;1.70;;
72761;SDS011;60886;55.034;73.150;2023-04-01T09:12:00;9.80;;;2.37;;
72761;SDS011;60886;55.034;73.150;2023-04-01T09:18:57;7.32;;;2.00;;
72761;SDS011;60886;55.034;73.150;2023-04-01T09:26:14;15.95;;;4.32;;
72761;SDS011;60886;55.034;73.150;2023-04-01T09:43:43;9.10;;;2.70;;
72761;SDS011;60886;55.034;73.150;2023-04-01T09:53:59;7.60;;;1.70;;
72761;SDS011;60886;55.034;73.150;2023-04-01T10:01:23;6.77;;;1.40;;
72761;SDS011;60886;55.034;73.150;2023-04-01T10:05:11;7.57;;;1.60;;
72761;SDS011;60886;55.034;73.150;2023-04-01T10:08:32;6.25;;;1.70;;
72761;SDS011;60886;55.034;73.150;2023-04-01T10:11:58;9.77;;;2.33;;
72761;SDS011;60886;55.034;73.150;2023-04-01T10:15:43;5.93;;;1.27;;
72761;SDS011;60886;55.034;73.150;2023-04-01T10:25:48;5.80;;;1.40;;
72761;SDS011;60886;55.034;73.150;2023-04-01T10:32:40;7.87;;;1.70;;
72761;SDS011;60886;55.034;73.150;2023-04-01T10:56:59;9.30;;;1.40;;
72761;SDS011;60886;55.034;73.150;2023-04-01T11:26:03;7.43;;;2.22;;
72761;SDS011;60886;55.034;73.150;2023-04-01T11:29:53;8.03;;;1.60;;
72761;SDS011;60886;55.034;73.150;2023-04-01T11:33:14;6.72;;;1.73;;
72761;SDS011;60886;55.034;73.150;2023-04-01T11:36:32;6.55;;;1.70;;
72761;SDS011;60886;55.034;73.150;2023-04-01T11:40:03;8.83;;;1.73;;
72761;SDS011;60886;55.034;73.150;2023-04-01T11:43:49;8.07;;;2.03;;
72761;SDS011;60886;55.034;73.150;2023-04-01T12:15:15;6.10;;;1.55;;
72761;SDS011;60886;55.034;73.150;2023-04-01T12:18:22;9.60;;;2.40;;
72761;SDS011;60886;55.034;73.150;2023-04-01T12:41:46;7.83;;;2.37;;
72761;SDS011;60886;55.034;73.150;2023-04-01T12:51:28;7.85;;;1.75;;
72761;SDS011;60886;55.034;73.150;2023-04-01T13:04:55;6.80;;;2.00;;
72761;SDS011;60886;55.034;73.150;2023-04-01T13:08:14;8.15;;;2.17;;
72761;SDS011;60886;55.034;73.150;2023-04-01T13:15:04;6.68;;;2.10;;
72761;SDS011;60886;55.034;73.150;2023-04-01T13:18:36;6.57;;;1.92;;
72761;SDS011;60886;55.034;73.150;2023-04-01T13:22:13;8.40;;;2.63;;
72761;SDS011;60886;55.034;73.150;2023-04-01T13:25:53;9.60;;;2.07;;
72761;SDS011;60886;55.034;73.150;2023-04-01T13:29:27;6.90;;;1.93;;
72761;SDS011;60886;55.034;73.150;2023-04-01T13:32:56;5.80;;;1.38;;
72761;SDS011;60886;55.034;73.150;2023-04-01T13:43:04;8.90;;;2.40;;
72761;SDS011;60886;55.034;73.150;2023-04-01T13:56:56;8.27;;;2.80;;
72761;SDS011;60886;55.034;73.150;2023-04-01T14:27:59;16.88;;;4.05;;
72761;SDS011;60886;55.034;73.150;2023-04-01T14:38:27;17.73;;;6.75;;
72761;SDS011;60886;55.034;73.150;2023-04-01T14:52:39;15.47;;;6.50;;
72761;SDS011;60886;55.034;73.150;2023-04-01T14:58:49;17.05;;;6.80;;
72761;SDS011;60886;55.034;73.150;2023-04-01T15:19:05;15.83;;;6.00;;
72761;SDS011;60886;55.034;73.150;2023-04-01T15:28:36;14.82;;;6.00;;
72761;SDS011;60886;55.034;73.150;2023-04-01T15:35:19;18.27;;;5.82;;
72761;SDS011;60886;55.034;73.150;2023-04-01T15:45:51;14.13;;;5.15;;
72761;SDS011;60886;55.034;73.150;2023-04-01T16:02:58;12.52;;;3.72;;
72761;SDS011;60886;55.034;73.150;2023-04-01T16:09:30;9.13;;;2.83;;
72761;SDS011;60886;55.034;73.150;2023-04-01T16:13:13;12.30;;;2.80;;
72761;SDS011;60886;55.034;73.150;2023-04-01T16:20:19;8.67;;;2.52;;
72761;SDS011;60886;55.034;73.150;2023-04-01T16:30:40;12.63;;;2.43;;
72761;SDS011;60886;55.034;73.150;2023-04-01T16:33:48;11.02;;;2.17;;
72761;SDS011;60886;55.034;73.150;2023-04-01T16:37:14;7.03;;;1.92;;
72761;SDS011;60886;55.034;73.150;2023-04-01T16:47:11;8.52;;;2.17;;
72761;SDS011;60886;55.034;73.150;2023-04-01T16:53:42;8.53;;;2.53;;
72761;SDS011;60886;55.034;73.150;2023-04-01T17:00:30;13.98;;;4.22;;
72761;SDS011;60886;55.034;73.150;2023-04-01T17:03:50;16.20;;;5.00;;
72761;SDS011;60886;55.034;73.150;2023-04-01T17:06:54;14.77;;;5.40;;
72761;SDS011;60886;55.034;73.150;2023-04-01T17:13:35;12.47;;;4.50;;
72761;SDS011;60886;55.034;73.150;2023-04-01T17:16:51;14.30;;;5.20;;
72761;SDS011;60886;55.034;73.150;2023-04-01T17:20:06;19.13;;;6.38;;
72761;SDS011;60886;55.034;73.150;2023-04-01T17:33:31;15.73;;;5.22;;
72761;SDS011;60886;55.034;73.150;2023-04-01T17:43:40;14.67;;;5.83;;
72761;SDS011;60886;55.034;73.150;2023-04-01T17:50:21;20.44;;;6.57;;
72761;SDS011;60886;55.034;73.150;2023-04-01T17:53:43;17.75;;;6.85;;
72761;SDS011;60886;55.034;73.150;2023-04-01T18:00:33;20.25;;;6.78;;
72761;SDS011;60886;55.034;73.150;2023-04-01T18:21:09;13.43;;;4.88;;
72761;SDS011;60886;55.034;73.150;2023-04-01T18:31:25;14.80;;;4.97;;
72761;SDS011;60886;55.034;73.150;2023-04-01T18:34:47;12.88;;;4.72;;
72761;SDS011;60886;55.034;73.150;2023-04-01T18:38:11;12.85;;;4.82;;
72761;SDS011;60886;55.034;73.150;2023-04-01T18:51:52;13.97;;;5.17;;
72761;SDS011;60886;55.034;73.150;2023-04-01T19:05:31;15.00;;;5.82;;
72761;SDS011;60886;55.034;73.150;2023-04-01T19:08:35;16.33;;;5.35;;
72761;SDS011;60886;55.034;73.150;2023-04-01T19:11:43;14.03;;;5.33;;
72761;SDS011;60886;55.034;73.150;2023-04-01T19:14:59;15.50;;;4.93;;
72761;SDS011;60886;55.034;73.150;2023-04-01T19:27:48;12.03;;;3.20;;
72761;SDS011;60886;55.034;73.150;2023-04-01T19:35:03;7.50;;;2.03;;
72761;SDS011;60886;55.034;73.150;2023-04-01T19:38:23;6.53;;;1.67;;
72761;SDS011;60886;55.034;73.150;2023-04-01T19:58:40;6.80;;;1.43;;
72761;SDS011;60886;55.034;73.150;2023-04-01T20:02:12;7.67;;;2.07;;
72761;SDS011;60886;55.034;73.150;2023-04-01T20:05:42;9.02;;;1.73;;
72761;SDS011;60886;55.034;73.150;2023-04-01T20:08:54;10.68;;;3.40;;
72761;SDS011;60886;55.034;73.150;2023-04-01T20:12:21;24.63;;;9.37;;
72761;SDS011;60886;55.034;73.150;2023-04-01T20:15:46;47.38;;;17.70;;
72761;SDS011;60886;55.034;73.150;2023-04-01T20:19:04;61.90;;;23.77;;
72761;SDS011;60886;55.034;73.150;2023-04-01T20:25:48;56.67;;;21.50;;
72761;SDS011;60886;55.034;73.150;2023-04-01T20:42:49;21.88;;;9.43;;
72761;SDS011;60886;55.034;73.150;2023-04-01T20:49:30;24.50;;;11.27;;
72761;SDS011;60886;55.034;73.150;2023-04-01T21:09:02;28.98;;;8.73;;
72761;SDS011;60886;55.034;73.150;2023-04-01T21:16:05;9.03;;;3.00;;
72761;SDS011;60886;55.034;73.150;2023-04-01T21:26:43;6.78;;;1.90;;
72761;SDS011;60886;55.034;73.150;2023-04-01T21:36:40;8.60;;;1.80;;
72761;SDS011;60886;55.034;73.150;2023-04-01T21:40:02;8.05;;;1.70;;
72761;SDS011;60886;55.034;73.150;2023-04-01T22:00:18;5.04;;;1.13;;
72761;SDS011;60886;55.034;73.150;2023-04-01T22:06:51;5.70;;;1.27;;
72761;SDS011;60886;55.034;73.150;2023-04-01T22:13:10;6.20;;;1.30;;
72761;SDS011;60886;55.034;73.150;2023-04-01T22:16:27;4.63;;;1.20;;
72761;SDS011;60886;55.034;73.150;2023-04-01T22:22:52;7.20;;;1.40;;
72761;SDS011;60886;55.034;73.150;2023-04-01T22:26:09;4.60;;;1.10;;
72761;SDS011;60886;55.034;73.150;2023-04-01T22:29:22;5.97;;;1.10;;
72761;SDS011;60886;55.034;73.150;2023-04-01T22:48:43;6.10;;;1.27;;
72761;SDS011;60886;55.034;73.150;2023-04-01T22:55:03;5.55;;;1.45;;
72761;SDS011;60886;55.034;73.150;2023-04-01T23:01:59;6.67;;;1.33;;
72761;SDS011;60886;55.034;73.150;2023-04-01T23:05:16;7.45;;;1.20;;
72761;SDS011;60886;55.034;73.150;2023-04-01T23:08:33;4.55;;;1.10;;
72761;SDS011;60886;55.034;73.150;2023-04-01T23:12:11;4.80;;;0.90;;
72761;SDS011;60886;55.034;73.150;2023-04-01T23:15:15;5.10;;;1.00;;
72761;SDS011;60886;55.034;73.150;2023-04-01T23:21:40;5.30;;;1.10;;
72761;SDS011;60886;55.034;73.150;2023-04-01T23:24:54;4.95;;;1.15;;
72761;SDS011;60886;55.034;73.150;2023-04-01T23:31:27;6.20;;;1.13;;
72761;SDS011;60886;55.034;73.150;2023-04-01T23:34:45;6.80;;;1.23;;
72761;SDS011;60886;55.034;73.150;2023-04-01T23:37:50;4.75;;;1.10;;
72761;SDS011;60886;55.034;73.150;2023-04-01T23:41:01;5.28;;;1.20;;
72761;SDS011;60886;55.034;73.150;2023-04-01T23:44:07;5.57;;;1.20;;
72761;SDS011;60886;55.034;73.150;2023-04-01T23:47:14;7.63;;;1.48;;
72761;SDS011;60886;55.034;73.150;2023-04-01T23:50:23;6.32;;;1.39;;
72761;SDS011;60886;55.034;73.150;2023-04-01T23:53:32;6.38;;;1.50;;
72761;SDS011;60886;55.034;73.150;2023-04-01T23:56:38;8.57;;;1.53;;
